sensor_id;sensor_type;location;lat;lon;timestamp;pressure;altitude;pressure_sealevel;temperature;humidity
42671;BME280;28283;55.426;37.756;2023-01-27T02:55:14;99651.47;;;-4.80;87.07
42671;BME280;28283;55.426;37.756;2023-01-27T03:00:15;99658.66;;;-4.69;87.19
42671;BME280;28283;55.426;37.756;2023-01-27T03:05:16;99619.84;;;-4.91;88.09
42671;BME280;28283;55.426;37.756;2023-01-27T03:10:22;99647.66;;;-4.62;86.07
42671;BME280;28283;55.426;37.756;2023-01-27T03:15:23;99678.81;;;-4.84;87.18
42671;BME280;28283;55.426;37.756;2023-01-27T03:20:45;99585.13;;;-5.24;86.82
42671;BME280;28283;55.426;37.756;2023-01-27T03:25:47;99671.97;;;-4.72;86.95
42671;BME280;28283;55.426;37.756;2023-01-27T03:30:48;99644.09;;;-4.88;87.01
42671;BME280;28283;55.426;37.756;2023-01-27T03:35:48;99637.06;;;-5.16;86.54
42671;BME280;28283;55.426;37.756;2023-01-27T03:40:49;99576.22;;;-5.07;85.14
42671;BME280;28283;55.426;37.756;2023-01-27T03:46:09;99595.41;;;-5.35;86.28
42671;BME280;28283;55.426;37.756;2023-01-27T03:51:21;99671.97;;;-4.87;87.25
42671;BME280;28283;55.426;37.756;2023-01-27T03:56:22;99548.19;;;-5.62;86.73
42671;BME280;28283;55.426;37.756;2023-01-27T04:01:25;99676.75;;;-4.79;87.21
42671;BME280;28283;55.426;37.756;2023-01-27T04:06:30;99702.22;;;-4.81;87.00
42671;BME280;28283;55.426;37.756;2023-01-27T04:11:55;99418.78;;;-6.44;86.36
42671;BME280;28283;55.426;37.756;2023-01-27T04:17:03;99421.63;;;-6.33;86.92
42671;BME280;28283;55.426;37.756;2023-01-27T04:22:05;99588.59;;;-5.23;86.02
42671;BME280;28283;55.426;37.756;2023-01-27T04:27:09;99540.88;;;-5.57;86.20
42671;BME280;28283;55.426;37.756;2023-01-27T04:32:12;99591.56;;;-5.29;86.63
42671;BME280;28283;55.426;37.756;2023-01-27T04:37:13;99653.94;;;-5.20;87.09
42671;BME280;28283;55.426;37.756;2023-01-27T04:42:14;99605.16;;;-5.37;87.37
42671;BME280;28283;55.426;37.756;2023-01-27T04:47:15;99690.88;;;-4.67;87.38
42671;BME280;28283;55.426;37.756;2023-01-27T04:52:16;99677.03;;;-4.98;87.09
42671;BME280;28283;55.426;37.756;2023-01-27T04:57:17;99663.09;;;-4.99;87.44
42671;BME280;28283;55.426;37.756;2023-01-27T05:02:18;99548.25;;;-5.64;87.19
42671;BME280;28283;55.426;37.756;2023-01-27T05:07:19;99558.94;;;-5.38;85.57
42671;BME280;28283;55.426;37.756;2023-01-27T05:12:19;99711.34;;;-4.45;85.21
42671;BME280;28283;55.426;37.756;2023-01-27T05:17:20;99713.06;;;-4.58;86.00
42671;BME280;28283;55.426;37.756;2023-01-27T05:22:21;99716.53;;;-4.72;87.41
42671;BME280;28283;55.426;37.756;2023-01-27T05:27:22;99712.59;;;-4.51;85.64
42671;BME280;28283;55.426;37.756;2023-01-27T05:32:23;99505.47;;;-6.06;86.36
42671;BME280;28283;55.426;37.756;2023-01-27T09:39:52;99642.16;;;-4.30;88.68
42671;BME280;28283;55.426;37.756;2023-01-27T10:10:59;99780.75;;;-3.26;88.50
42671;BME280;28283;55.426;37.756;2023-01-27T10:40:00;99776.44;;;-3.14;88.97
42671;BME280;28283;55.426;37.756;2023-01-27T11:44:14;99702.69;;;-3.51;86.90
42671;BME280;28283;55.426;37.756;2023-01-27T11:49:32;99681.78;;;-3.27;86.81
42671;BME280;28283;55.426;37.756;2023-01-27T12:00:33;99818.22;;;-2.84;86.35
42671;BME280;28283;55.426;37.756;2023-01-27T12:05:47;99703.00;;;-3.43;86.85
42671;BME280;28283;55.426;37.756;2023-01-27T12:10:54;99703.72;;;-3.54;87.13
42671;BME280;28283;55.426;37.756;2023-01-27T12:16:00;99653.94;;;-3.83;87.71
42671;BME280;28283;55.426;37.756;2023-01-27T12:33:44;99533.25;;;-4.50;86.35
42671;BME280;28283;55.426;37.756;2023-01-27T13:14:01;99825.81;;;-3.05;88.33
42671;BME280;28283;55.426;37.756;2023-01-27T13:19:16;99772.50;;;-3.34;88.24
42671;BME280;28283;55.426;37.756;2023-01-27T13:24:39;99825.09;;;-2.94;88.26
42671;BME280;28283;55.426;37.756;2023-01-27T13:30:39;99715.03;;;-3.66;89.19
42671;BME280;28283;55.426;37.756;2023-01-27T13:36:38;99714.28;;;-3.68;89.51
42671;BME280;28283;55.426;37.756;2023-01-27T13:41:42;99729.97;;;-3.14;86.82
42671;BME280;28283;55.426;37.756;2023-01-27T14:03:24;99849.31;;;-2.63;87.70
42671;BME280;28283;55.426;37.756;2023-01-27T14:08:47;99867.81;;;-2.78;88.30
42671;BME280;28283;55.426;37.756;2023-01-27T14:25:00;99838.19;;;-3.07;88.66
42671;BME280;28283;55.426;37.756;2023-01-27T14:30:13;99876.13;;;-2.84;89.28
42671;BME280;28283;55.426;37.756;2023-01-27T14:35:35;99735.38;;;-3.83;89.76
42671;BME280;28283;55.426;37.756;2023-01-27T14:47:00;99866.84;;;-2.90;89.03
42671;BME280;28283;55.426;37.756;2023-01-27T14:52:43;99890.22;;;-2.85;89.05
42671;BME280;28283;55.426;37.756;2023-01-27T15:08:40;99908.88;;;-2.62;88.71
42671;BME280;28283;55.426;37.756;2023-01-27T15:29:42;99634.28;;;-4.30;89.02
42671;BME280;28283;55.426;37.756;2023-01-27T15:35:39;99902.41;;;-2.44;87.82
42671;BME280;28283;55.426;37.756;2023-01-27T23:57:07;99997.09;;;-2.70;94.72
